createdAt,value
2023-03-21T00:00:06.499Z,4.8
2023-03-21T00:01:06.632Z,4
2023-03-21T00:02:07.026Z,4.8
2023-03-21T00:03:06.162Z,4.8
2023-03-21T00:04:06.645Z,4.8
2023-03-21T00:05:19.348Z,4.8
2023-03-21T00:06:06.671Z,4.7
2023-03-21T00:07:05.845Z,4.7
2023-03-21T00:08:06.928Z,4.7
2023-03-21T00:09:06.343Z,4.7
2023-03-21T00:10:39.389Z,4.7
2023-03-21T00:11:06.101Z,4.6
2023-03-21T00:12:06.381Z,4.6
2023-03-21T00:13:06.802Z,4.6
2023-03-21T00:14:06.112Z,4.6
2023-03-21T00:15:06.589Z,4.6
2023-03-21T00:16:34.899Z,4.5
2023-03-21T00:17:06.366Z,4.5
2023-03-21T00:18:06.525Z,4.5
2023-03-21T00:19:06.822Z,4.5
2023-03-21T00:20:05.902Z,4.5
2023-03-21T00:22:12.530Z,4.4
2023-03-21T00:23:06.533Z,4
2023-03-21T00:24:06.799Z,4.4
2023-03-21T00:25:06.081Z,4.4
2023-03-21T00:26:06.262Z,4.4
2023-03-21T00:28:07.392Z,4.4
2023-03-21T00:28:12.728Z,4.5
2023-03-21T00:29:06.256Z,4.5
2023-03-21T00:30:06.561Z,4.5
2023-03-21T00:31:05.947Z,4.5
2023-03-21T00:32:06.173Z,4.5
2023-03-21T00:33:24.656Z,4.6
2023-03-21T00:34:05.866Z,4.6
2023-03-21T00:36:05.549Z,4.6
2023-03-21T00:36:09.850Z,4
2023-03-21T00:37:06.738Z,4
2023-03-21T00:38:06.202Z,4.6
2023-03-21T00:39:06.380Z,4.6
2023-03-21T00:40:19.643Z,4.6
2023-03-21T00:41:43.059Z,4.6
2023-03-21T00:42:06.801Z,4.6
2023-03-21T00:43:05.885Z,4.6
2023-03-21T00:44:06.599Z,4.6
2023-03-21T00:45:06.756Z,4.6
2023-03-21T00:46:06.753Z,4.6
2023-03-21T00:47:12.164Z,4.6
2023-03-21T00:48:06.610Z,4.6
2023-03-21T00:49:06.526Z,4.6
2023-03-21T00:50:06.726Z,4.6
2023-03-21T00:51:05.943Z,4.7
2023-03-21T00:52:40.068Z,4.7
2023-03-21T00:53:05.622Z,4.8
2023-03-21T00:54:06.053Z,4.8
2023-03-21T00:55:06.210Z,4.8
2023-03-21T00:56:06.418Z,4.8
2023-03-21T00:57:06.050Z,4.8
2023-03-21T00:58:07.015Z,4.9
2023-03-21T00:59:06.422Z,4.9
2023-03-21T01:00:06.720Z,4.9
2023-03-21T01:01:06.117Z,5
2023-03-21T01:02:06.247Z,5
2023-03-21T01:03:27.097Z,5
2023-03-21T01:04:06.212Z,5.1
2023-03-21T01:05:06.623Z,5.1
2023-03-21T01:06:06.274Z,5.1
2023-03-21T01:07:06.170Z,5.2
2023-03-21T01:08:31.341Z,5.2
2023-03-21T01:09:06.741Z,5.2
2023-03-21T01:10:06.100Z,5.2
2023-03-21T01:11:06.086Z,5.2
2023-03-21T01:12:06.407Z,5.3
2023-03-21T01:13:06.573Z,5.3
2023-03-21T01:14:25.954Z,5.3
2023-03-21T01:15:06.056Z,5.3
2023-03-21T01:16:06.519Z,5.4
2023-03-21T01:17:06.726Z,5.4
2023-03-21T01:18:05.949Z,5.4
2023-03-21T01:19:22.329Z,5.5
2023-03-21T01:20:06.529Z,5.5
2023-03-21T01:21:05.924Z,5.5
2023-03-21T01:22:05.790Z,5.5
2023-03-21T01:23:06.216Z,5.5
2023-03-21T01:24:06.702Z,5.5
2023-03-21T01:25:25.398Z,5.5
2023-03-21T01:26:06.674Z,5.6
2023-03-21T01:27:05.855Z,5.6
2023-03-21T01:28:06.246Z,5.6
2023-03-21T01:29:06.576Z,5.6
2023-03-21T01:30:19.568Z,5.6
2023-03-21T01:31:06.056Z,5.6
2023-03-21T01:32:06.346Z,5.6
2023-03-21T01:33:06.633Z,5.6
2023-03-21T01:34:05.935Z,5.6
2023-03-21T01:35:06.346Z,5.6
2023-03-21T01:36:19.284Z,5.6
2023-03-21T01:37:06.129Z,5.6
2023-03-21T01:38:06.025Z,5.7
2023-03-21T01:39:06.093Z,5.7
2023-03-21T01:40:06.572Z,5.7
2023-03-21T01:41:22.018Z,5.7
2023-03-21T01:42:05.958Z,5.7
2023-03-21T01:43:06.120Z,5.7
2023-03-21T01:44:06.560Z,5.7
2023-03-21T01:45:06.814Z,5.7
2023-03-21T01:46:05.960Z,5.7
2023-03-21T01:47:21.373Z,5.7
2023-03-21T01:48:06.218Z,5.8
2023-03-21T01:49:06.525Z,5.8
2023-03-21T01:50:05.510Z,5.8
2023-03-21T01:51:05.877Z,5.7
2023-03-21T01:52:12.102Z,5.8
2023-03-21T01:53:06.375Z,5.8
2023-03-21T01:54:06.583Z,5.8
2023-03-21T01:55:05.651Z,5.8
2023-03-21T01:56:06.057Z,5.8
2023-03-21T01:57:06.303Z,5.8
2023-03-21T01:58:07.341Z,5.8
2023-03-21T01:59:06.637Z,5.8
2023-03-21T02:00:05.761Z,5.8
2023-03-21T02:01:05.802Z,5.8
2023-03-21T02:02:06.157Z,5.8
2023-03-21T02:03:13.985Z,5.8
2023-03-21T02:04:05.856Z,5.8
2023-03-21T02:05:06.062Z,5.8
2023-03-21T02:06:06.438Z,5.8
2023-03-21T02:07:06.254Z,5.8
2023-03-21T02:08:05.662Z,5.8
2023-03-21T02:09:06.130Z,5.8
2023-03-21T02:10:06.231Z,5.8
2023-03-21T02:11:06.343Z,5.8
2023-03-21T02:12:06.648Z,5
2023-03-21T02:13:05.715Z,5.9
2023-03-21T02:14:07.597Z,5.9
2023-03-21T02:15:06.171Z,5.9
2023-03-21T02:16:06.475Z,5.9
2023-03-21T02:17:05.750Z,5.9
2023-03-21T02:18:06.089Z,5.9
2023-03-21T02:19:06.253Z,5.9
2023-03-21T02:20:06.221Z,5.9
2023-03-21T02:21:05.635Z,5.9
2023-03-21T02:22:06.225Z,5.9
2023-03-21T02:23:06.624Z,5.9
2023-03-21T02:24:05.851Z,5.9
2023-03-21T02:25:13.316Z,5.9
2023-03-21T02:26:05.841Z,5.9
2023-03-21T02:27:06.093Z,5.9
2023-03-21T02:28:06.304Z,5.9
2023-03-21T02:29:06.514Z,5.9
2023-03-21T02:30:05.745Z,5.9
2023-03-21T02:31:05.699Z,5.9
2023-03-21T02:32:18.075Z,5.9
2023-03-21T02:33:06.077Z,5.9
2023-03-21T02:34:06.329Z,5.9
2023-03-21T02:35:06.365Z,5.9
2023-03-21T02:36:13.509Z,5.9
2023-03-21T02:37:06.065Z,6
2023-03-21T02:38:06.253Z,5.9
2023-03-21T02:39:05.696Z,6
2023-03-21T02:40:05.976Z,5.9
2023-03-21T02:41:13.128Z,6
2023-03-21T02:42:06.298Z,6
2023-03-21T02:43:09.284Z,6
2023-03-21T02:44:05.648Z,6
2023-03-21T02:45:06.049Z,6
2023-03-21T02:46:06.549Z,6
2023-03-21T02:47:06.798Z,6
2023-03-21T02:48:06.319Z,6
2023-03-21T02:49:05.774Z,6
2023-03-21T02:50:05.886Z,6
2023-03-21T02:51:06.533Z,6
2023-03-21T02:52:15.485Z,6
2023-03-21T02:53:06.408Z,6
2023-03-21T02:54:26.312Z,6
2023-03-21T02:55:05.983Z,6
2023-03-21T02:56:06.180Z,6
2023-03-21T02:57:06.369Z,6
2023-03-21T02:58:12.643Z,6
2023-03-21T02:59:05.853Z,6
2023-03-21T03:00:15.726Z,6
2023-03-21T03:01:06.083Z,6
2023-03-21T03:02:06.276Z,6
2023-03-21T03:03:10.431Z,6
2023-03-21T03:04:06.389Z,6
2023-03-21T03:05:11.736Z,6
2023-03-21T03:06:06.107Z,6
2023-03-21T03:07:06.443Z,6
2023-03-21T03:08:05.656Z,6
2023-03-21T03:09:05.943Z,6
2023-03-21T03:10:06.314Z,6
2023-03-21T03:11:05.435Z,6
2023-03-21T03:12:05.769Z,6
2023-03-21T03:13:05.954Z,6
2023-03-21T03:14:21.346Z,6.1
2023-03-21T03:15:06.403Z,6.1
2023-03-21T03:16:05.626Z,6
2023-03-21T03:17:06.043Z,6
2023-03-21T03:18:06.193Z,6
2023-03-21T03:19:06.515Z,6
2023-03-21T03:20:15.407Z,6
2023-03-21T03:21:06.185Z,6.1
2023-03-21T03:22:06.201Z,6
2023-03-21T03:23:05.817Z,6.1
2023-03-21T03:24:06.149Z,6.1
2023-03-21T03:25:18.409Z,6.1
2023-03-21T03:26:06.025Z,6.1
2023-03-21T03:27:06.203Z,6
2023-03-21T03:28:06.336Z,6.1
2023-03-21T03:29:05.461Z,6.1
2023-03-21T03:30:06.037Z,6.1
2023-03-21T03:31:09.449Z,6.1
2023-03-21T03:32:06.733Z,6.1
2023-03-21T03:33:05.787Z,6.1
2023-03-21T03:34:05.993Z,6.1
2023-03-21T03:35:06.233Z,6.1
2023-03-21T03:36:07.090Z,6.1
2023-03-21T03:37:06.272Z,6.1
2023-03-21T03:38:06.525Z,6.1
2023-03-21T03:39:05.392Z,6.1
2023-03-21T03:40:06.030Z,6.2
2023-03-21T03:41:06.323Z,6.1
2023-03-21T03:42:18.174Z,6.1
2023-03-21T03:43:06.789Z,6.2
2023-03-21T03:44:06.064Z,6.2
2023-03-21T03:45:06.390Z,6.2
2023-03-21T03:46:06.054Z,6.2
2023-03-21T03:47:06.115Z,6.1
2023-03-21T03:48:05.706Z,6.2
2023-03-21T03:49:05.952Z,6.2
2023-03-21T03:50:06.270Z,6.2
2023-03-21T03:51:06.626Z,6.2
2023-03-21T03:52:05.559Z,6.2
2023-03-21T03:53:12.988Z,6.2
2023-03-21T03:54:06.127Z,6
2023-03-21T03:55:06.551Z,6
2023-03-21T03:56:05.880Z,6.2
2023-03-21T03:57:06.108Z,6.2
2023-03-21T03:58:10.593Z,6.2
2023-03-21T03:59:05.696Z,6.2
2023-03-21T04:00:06.007Z,6.2
2023-03-21T04:01:06.268Z,6.2
2023-03-21T04:02:06.311Z,6.2
2023-03-21T04:03:05.872Z,6.2
2023-03-21T04:04:12.852Z,6.2
2023-03-21T04:05:06.710Z,6.2
2023-03-21T04:06:05.929Z,6.3
2023-03-21T04:07:06.070Z,6.2
2023-03-21T04:08:06.272Z,6.3
2023-03-21T04:09:17.287Z,6.2
2023-03-21T04:10:05.884Z,6.3
2023-03-21T04:11:06.122Z,6.2
2023-03-21T04:12:05.700Z,6.3
2023-03-21T04:13:05.878Z,6.2
2023-03-21T04:14:06.158Z,6.3
2023-03-21T04:15:10.589Z,6.3
2023-03-21T04:16:05.845Z,6.3
2023-03-21T04:17:06.048Z,6.3
2023-03-21T04:18:06.209Z,6.3
2023-03-21T04:19:06.503Z,6.2
2023-03-21T04:20:11.956Z,6.2
2023-03-21T04:21:06.398Z,6.2
2023-03-21T04:22:06.606Z,6.3
2023-03-21T04:23:05.738Z,6.2
2023-03-21T04:24:06.361Z,6.3
2023-03-21T04:25:05.878Z,6.3
2023-03-21T04:26:06.102Z,6.2
2023-03-21T04:27:06.034Z,6.3
2023-03-21T04:28:06.468Z,6.3
2023-03-21T04:29:06.573Z,6.3
2023-03-21T04:30:05.786Z,6.3
2023-03-21T04:31:13.472Z,6.2
2023-03-21T04:32:06.278Z,6.3
2023-03-21T04:33:05.766Z,6.2
2023-03-21T04:34:06.149Z,6.2
2023-03-21T04:35:06.435Z,6.2
2023-03-21T04:36:05.603Z,6.3
2023-03-21T04:37:05.853Z,6.2
2023-03-21T04:38:05.992Z,6.2
2023-03-21T04:39:06.312Z,6.2
2023-03-21T04:40:05.874Z,6.2
2023-03-21T04:41:06.231Z,6.2
2023-03-21T04:42:06.433Z,6.2
2023-03-21T04:43:05.531Z,6.2
2023-03-21T04:44:05.923Z,6.3
2023-03-21T04:45:06.367Z,6.2
2023-03-21T04:46:06.704Z,6.2
2023-03-21T04:47:05.606Z,6.2
2023-03-21T04:48:06.021Z,6.2
2023-03-21T04:49:06.235Z,6.2
2023-03-21T04:50:05.713Z,6
2023-03-21T04:51:06.657Z,6
2023-03-21T04:52:05.728Z,6.2
2023-03-21T04:53:06.108Z,6.2
2023-03-21T04:54:06.721Z,6.2
2023-03-21T04:55:05.916Z,6.2
2023-03-21T04:56:06.083Z,6.2
2023-03-21T04:57:06.405Z,6.2
2023-03-21T04:58:05.650Z,6.2
2023-03-21T04:59:06.166Z,6.2
2023-03-21T05:00:06.340Z,6.2
2023-03-21T05:01:06.438Z,6.2
2023-03-21T05:02:05.847Z,6.2
2023-03-21T05:03:06.020Z,6.2
2023-03-21T05:04:06.377Z,6
2023-03-21T05:05:05.640Z,6
2023-03-21T05:06:06.122Z,6.2
2023-03-21T05:07:06.194Z,6.2
2023-03-21T05:08:06.539Z,6.2
2023-03-21T05:09:05.679Z,6
2023-03-21T05:10:05.805Z,6.2
2023-03-21T05:11:06.174Z,6.2
2023-03-21T05:12:06.406Z,6.2
2023-03-21T05:13:05.777Z,6.2
2023-03-21T05:14:06.115Z,6.2
2023-03-21T05:15:05.904Z,6.2
2023-03-21T05:16:05.999Z,6.2
2023-03-21T05:17:05.999Z,6.2
2023-03-21T05:18:05.625Z,6.2
2023-03-21T05:19:05.897Z,6.2
2023-03-21T05:20:06.288Z,6.2
2023-03-21T05:21:06.435Z,6.2
2023-03-21T05:22:05.561Z,6.2
2023-03-21T05:23:05.783Z,6.2
2023-03-21T05:24:06.187Z,6.2
2023-03-21T05:25:06.637Z,6.2
2023-03-21T05:26:05.786Z,6.2
2023-03-21T05:27:06.102Z,6
2023-03-21T05:28:05.115Z,6.2
2023-03-21T05:29:06.302Z,6.2
2023-03-21T05:30:05.595Z,6.2
2023-03-21T05:31:05.904Z,6.1
2023-03-21T05:32:06.089Z,6.2
2023-03-21T05:33:06.441Z,6.2
2023-03-21T05:34:06.617Z,6.2
2023-03-21T05:35:05.993Z,6.2
2023-03-21T05:36:06.129Z,6.2
2023-03-21T05:37:06.139Z,6.1
2023-03-21T05:38:05.774Z,6.1
2023-03-21T05:39:05.857Z,6.2
2023-03-21T05:40:05.705Z,6.2
2023-03-21T05:41:06.053Z,6.1
2023-03-21T05:42:06.395Z,6.2
2023-03-21T05:43:06.262Z,6.2
2023-03-21T05:44:05.841Z,6.2
2023-03-21T05:45:06.120Z,6.1
2023-03-21T05:46:05.834Z,6
2023-03-21T05:47:06.042Z,6.1
2023-03-21T05:48:06.336Z,6.1
2023-03-21T05:49:06.390Z,6.2
2023-03-21T05:50:05.743Z,6.1
2023-03-21T05:51:06.042Z,6.1
2023-03-21T05:52:06.243Z,6.1
2023-03-21T05:53:06.546Z,6.1
2023-03-21T05:54:05.761Z,6.1
2023-03-21T05:55:05.934Z,6.1
2023-03-21T05:56:06.301Z,6.1
2023-03-21T05:57:06.303Z,6.1
2023-03-21T05:58:05.552Z,6.2
2023-03-21T05:59:05.798Z,6.2
2023-03-21T06:00:06.177Z,6.2
2023-03-21T06:01:06.445Z,6.2
2023-03-21T06:02:05.655Z,6.3
2023-03-21T06:03:05.849Z,6.3
2023-03-21T06:04:06.430Z,6.3
2023-03-21T06:05:05.643Z,6.3
2023-03-21T06:07:06.038Z,6.4
2023-03-21T06:08:06.089Z,6.4
2023-03-21T06:09:06.466Z,6.4
2023-03-21T06:10:06.268Z,6.4
2023-03-21T06:11:05.862Z,6.6
2023-03-21T06:12:05.985Z,6.5
2023-03-21T06:13:06.451Z,6
2023-03-21T06:14:06.546Z,6.8
2023-03-21T06:15:05.932Z,6.8
2023-03-21T06:16:05.972Z,6.8
2023-03-21T06:17:06.287Z,6.8
2023-03-21T06:18:05.825Z,6.8
2023-03-21T06:19:05.998Z,6.8
2023-03-21T06:20:06.087Z,6.9
2023-03-21T06:21:06.390Z,6.9
2023-03-21T06:22:06.598Z,6.9
2023-03-21T06:23:05.685Z,7
2023-03-21T06:24:06.310Z,7
2023-03-21T06:25:06.624Z,7.1
2023-03-21T06:26:06.345Z,7.1
2023-03-21T06:27:05.472Z,7.1
2023-03-21T06:28:05.737Z,7.2
2023-03-21T06:29:06.094Z,7.2
2023-03-21T06:30:06.101Z,7.2
2023-03-21T06:31:06.648Z,7.3
2023-03-21T06:32:05.718Z,7.3
2023-03-21T06:33:06.017Z,7.4
2023-03-21T06:34:06.336Z,7.4
2023-03-21T06:35:05.676Z,7.5
2023-03-21T06:36:05.726Z,7.6
2023-03-21T06:37:06.037Z,7.6
2023-03-21T06:38:06.350Z,7
2023-03-21T06:39:05.863Z,7.7
2023-03-21T06:40:06.167Z,7.6
2023-03-21T06:41:05.993Z,7.8
2023-03-21T06:42:06.358Z,7.9
2023-03-21T06:43:05.727Z,7.9
2023-03-21T06:44:06.025Z,7.9
2023-03-21T06:45:06.344Z,8
2023-03-21T06:46:06.687Z,8
2023-03-21T06:47:05.870Z,8.1
2023-03-21T06:48:08.108Z,8.2
2023-03-21T06:49:06.533Z,8.2
2023-03-21T06:50:05.769Z,8.2
2023-03-21T06:51:06.177Z,8.4
2023-03-21T06:52:05.953Z,7
2023-03-21T06:53:06.626Z,8.4
2023-03-21T06:54:05.872Z,8.4
2023-03-21T06:55:06.183Z,8.5
2023-03-21T06:56:06.160Z,8.5
2023-03-21T06:57:06.279Z,8.5
2023-03-21T06:58:05.606Z,8
2023-03-21T06:59:05.939Z,8.6
2023-03-21T07:00:06.275Z,8.6
2023-03-21T07:01:06.271Z,8.6
2023-03-21T07:02:05.734Z,8.7
2023-03-21T07:03:05.973Z,8.7
2023-03-21T07:04:06.097Z,8.8
2023-03-21T07:05:06.481Z,8.8
2023-03-21T07:06:05.683Z,8.9
2023-03-21T07:07:05.949Z,8.8
2023-03-21T07:08:06.019Z,8.9
2023-03-21T07:09:06.324Z,8.9
2023-03-21T07:10:06.496Z,9
2023-03-21T07:11:05.992Z,9
2023-03-21T07:12:05.960Z,9.1
2023-03-21T07:13:06.120Z,9.1
2023-03-21T07:14:06.452Z,9.2
2023-03-21T07:15:05.255Z,9.2
2023-03-21T07:16:05.835Z,9.2
2023-03-21T07:17:05.759Z,8
2023-03-21T07:18:06.451Z,9.2
2023-03-21T07:19:05.626Z,9.3
2023-03-21T07:20:06.032Z,9.2
2023-03-21T07:21:06.383Z,9.4
2023-03-21T07:22:06.707Z,9.4
2023-03-21T07:23:06.198Z,9.4
2023-03-21T07:24:06.309Z,9.4
2023-03-21T07:25:05.829Z,9.5
2023-03-21T07:26:06.184Z,9.5
2023-03-21T07:27:06.363Z,9.5
2023-03-21T07:28:06.688Z,9.5
2023-03-21T07:29:06.067Z,9.6
2023-03-21T07:30:06.291Z,9.5
2023-03-21T07:31:05.992Z,9.5
2023-03-21T07:32:06.275Z,9.5
2023-03-21T07:33:06.263Z,9.6
2023-03-21T07:34:05.619Z,9.5
2023-03-21T07:35:05.987Z,9.6
2023-03-21T07:36:05.995Z,9.6
2023-03-21T07:37:06.257Z,9.6
2023-03-21T07:38:05.946Z,9.6
2023-03-21T07:39:06.184Z,9.6
2023-03-21T07:40:06.556Z,9.6
2023-03-21T07:41:05.705Z,9.7
2023-03-21T07:42:05.853Z,9
2023-03-21T07:43:06.382Z,9.7
2023-03-21T07:45:05.876Z,9.7
2023-03-21T07:46:06.303Z,9.7
2023-03-21T07:47:06.200Z,9.7
2023-03-21T07:48:05.797Z,9.8
2023-03-21T07:49:06.007Z,9.8
2023-03-21T07:50:06.513Z,9.9
2023-03-21T07:51:06.664Z,9.9
2023-03-21T07:52:05.772Z,10
2023-03-21T07:53:06.046Z,10
2023-03-21T07:54:06.350Z,10
2023-03-21T07:55:06.438Z,10.1
2023-03-21T07:56:05.708Z,10.2
2023-03-21T07:57:05.734Z,10.3
2023-03-21T07:58:05.836Z,10.4
2023-03-21T07:59:06.405Z,10.4
2023-03-21T08:00:05.945Z,10.5
2023-03-21T08:01:06.019Z,10.5
2023-03-21T08:02:06.326Z,10.6
2023-03-21T08:03:06.513Z,10.7
2023-03-21T08:04:05.684Z,10.8
2023-03-21T08:05:05.991Z,10.8
2023-03-21T08:06:06.257Z,10.8
2023-03-21T08:07:06.774Z,11
2023-03-21T08:08:05.892Z,11.1
2023-03-21T08:09:06.009Z,11
2023-03-21T08:10:05.987Z,11.2
2023-03-21T08:11:06.083Z,11.3
2023-03-21T08:12:06.432Z,11.5
2023-03-21T08:13:05.663Z,11.5
2023-03-21T08:14:05.769Z,11.6
2023-03-21T08:15:06.104Z,11.6
2023-03-21T08:16:06.624Z,11.7
2023-03-21T08:17:05.907Z,11.8
2023-03-21T08:18:06.204Z,11.8
2023-03-21T08:19:06.356Z,11.8
2023-03-21T08:20:06.565Z,12
2023-03-21T08:21:06.577Z,12
2023-03-21T08:22:06.009Z,11
2023-03-21T08:23:06.480Z,12.1
2023-03-21T08:24:06.512Z,12.1
2023-03-21T08:25:05.565Z,12.3
2023-03-21T08:26:06.394Z,12.4
2023-03-21T08:27:05.712Z,12.4
2023-03-21T08:28:06.112Z,12.6
2023-03-21T08:29:06.344Z,12.7
2023-03-21T08:30:06.383Z,12.7
2023-03-21T08:31:06.504Z,12.7
2023-03-21T08:32:06.649Z,12.7
2023-03-21T08:33:05.807Z,12.7
2023-03-21T08:34:05.806Z,12.6
2023-03-21T08:35:06.426Z,12.7
2023-03-21T08:36:06.221Z,12.7
2023-03-21T08:37:06.442Z,12.7
2023-03-21T08:38:05.770Z,12.7
2023-03-21T08:39:05.952Z,12.7
2023-03-21T08:40:06.125Z,12.7
2023-03-21T08:41:05.748Z,12.7
2023-03-21T08:42:06.064Z,12.7
2023-03-21T08:43:06.170Z,12.7
2023-03-21T08:44:06.540Z,12.7
2023-03-21T08:45:05.783Z,12.7
2023-03-21T08:46:05.877Z,12.8
2023-03-21T08:47:06.276Z,12.8
2023-03-21T08:48:06.737Z,12.8
2023-03-21T08:49:05.840Z,12.8
2023-03-21T08:50:06.123Z,12.8
2023-03-21T08:51:06.621Z,12.8
2023-03-21T08:52:05.544Z,12.8
2023-03-21T08:53:06.074Z,12.8
2023-03-21T08:54:06.557Z,12.8
2023-03-21T08:55:05.871Z,12.8
2023-03-21T08:56:06.087Z,12.8
2023-03-21T08:57:06.418Z,12.8
2023-03-21T08:58:06.749Z,12.8
2023-03-21T08:59:05.601Z,12.8
2023-03-21T09:00:06.282Z,12.9
2023-03-21T09:01:06.040Z,12.9
2023-03-21T09:02:06.637Z,12.9
2023-03-21T09:03:05.696Z,13
2023-03-21T09:04:05.944Z,13
2023-03-21T09:05:06.343Z,13
2023-03-21T09:06:06.660Z,13.1
2023-03-21T09:07:05.980Z,13
2023-03-21T09:08:06.197Z,13.1
2023-03-21T09:09:06.590Z,13.1
2023-03-21T09:10:20.102Z,13.2
2023-03-21T09:11:05.842Z,13.2
2023-03-21T09:12:05.820Z,13.2
2023-03-21T09:13:06.380Z,13.2
2023-03-21T09:14:06.356Z,13.2
2023-03-21T09:15:05.851Z,13.2
2023-03-21T09:16:06.272Z,13.3
2023-03-21T09:17:06.664Z,13.4
2023-03-21T09:18:05.914Z,12
2023-03-21T09:19:06.295Z,13.4
2023-03-21T09:20:06.451Z,13.4
2023-03-21T09:21:05.574Z,13.5
2023-03-21T09:22:05.882Z,13.6
2023-03-21T09:23:06.411Z,13.6
2023-03-21T09:24:05.559Z,13.6
2023-03-21T09:25:05.974Z,13.6
2023-03-21T09:26:05.829Z,13.7
2023-03-21T09:27:06.245Z,13.7
2023-03-21T09:28:06.393Z,13.7
2023-03-21T09:29:05.801Z,13.8
2023-03-21T09:30:06.073Z,13.8
2023-03-21T09:31:06.489Z,13.9
2023-03-21T09:32:05.777Z,14
2023-03-21T09:33:06.124Z,14
2023-03-21T09:34:06.292Z,14.2
2023-03-21T09:35:06.369Z,14.3
2023-03-21T09:36:05.735Z,14.4
2023-03-21T09:37:06.113Z,14.4
2023-03-21T09:38:06.110Z,14.6
2023-03-21T09:39:06.410Z,14.7
2023-03-21T09:40:05.828Z,14.7
2023-03-21T09:41:06.269Z,14.9
2023-03-21T09:42:05.569Z,15
2023-03-21T09:43:05.801Z,15
2023-03-21T09:44:06.075Z,13
2023-03-21T09:45:06.377Z,15
2023-03-21T09:46:06.155Z,15.1
2023-03-21T09:47:06.503Z,15.1
2023-03-21T09:48:05.835Z,15.2
2023-03-21T09:49:05.862Z,15.3
2023-03-21T09:50:13.921Z,15.3
2023-03-21T09:51:06.507Z,15.3
2023-03-21T09:52:06.141Z,15.3
2023-03-21T09:53:06.264Z,15.3
2023-03-21T09:54:06.486Z,15.4
2023-03-21T09:55:05.750Z,15.4
2023-03-21T09:56:05.984Z,15.6
2023-03-21T09:57:06.216Z,15.6
2023-03-21T09:58:06.400Z,15.7
2023-03-21T09:59:05.738Z,15.8
2023-03-21T10:00:06.104Z,15.9
2023-03-21T10:01:05.477Z,16
2023-03-21T10:02:06.166Z,13
2023-03-21T10:03:06.355Z,16
2023-03-21T10:04:05.639Z,16.2
2023-03-21T10:05:05.950Z,16.2
2023-03-21T10:06:06.425Z,16.1
2023-03-21T10:07:06.714Z,16.2
2023-03-21T10:08:05.767Z,16.2
2023-03-21T10:09:05.952Z,16.2
2023-03-21T10:10:06.214Z,16.4
2023-03-21T10:11:06.075Z,16.4
2023-03-21T10:12:06.350Z,16.4
2023-03-21T10:13:05.707Z,16.5
2023-03-21T10:14:05.938Z,16.5
2023-03-21T10:15:05.932Z,14
2023-03-21T10:16:05.707Z,16.6
2023-03-21T10:17:05.938Z,16.6
2023-03-21T10:18:06.216Z,16.6
2023-03-21T10:19:06.508Z,16.7
2023-03-21T10:20:05.830Z,16.7
2023-03-21T10:21:05.673Z,16.8
2023-03-21T10:22:06.061Z,16.9
2023-03-21T10:23:06.280Z,17.1
2023-03-21T10:24:05.815Z,17.2
2023-03-21T10:25:06.035Z,17.2
2023-03-21T10:26:06.372Z,17.4
2023-03-21T10:27:06.750Z,17.4
2023-03-21T10:28:06.047Z,17.4
2023-03-21T10:29:06.258Z,17.4
2023-03-21T10:30:06.511Z,17.2
2023-03-21T10:31:05.614Z,17.3
2023-03-21T10:32:06.136Z,17.3
2023-03-21T10:33:06.405Z,17.3
2023-03-21T10:34:05.638Z,17.3
2023-03-21T10:35:06.868Z,17.4
2023-03-21T10:36:06.161Z,17.5
2023-03-21T10:37:05.556Z,17.6
2023-03-21T10:38:05.774Z,17.7
2023-03-21T10:39:06.262Z,14
2023-03-21T10:40:06.273Z,17.6
2023-03-21T10:41:06.580Z,17.7
2023-03-21T10:42:05.805Z,17.6
2023-03-21T10:43:06.085Z,17.6
2023-03-21T10:44:06.293Z,17.6
2023-03-21T10:45:06.626Z,17.7
2023-03-21T10:46:05.834Z,17.8
2023-03-21T10:47:06.378Z,17.8
2023-03-21T10:48:06.548Z,17.8
2023-03-21T10:49:06.303Z,15
2023-03-21T10:50:08.002Z,17.7
2023-03-21T10:51:05.887Z,17.7
2023-03-21T10:52:06.400Z,17.8
2023-03-21T10:53:06.513Z,17.7
2023-03-21T10:54:05.737Z,17.7
2023-03-21T10:55:06.003Z,17.7
2023-03-21T10:56:05.563Z,17.8
2023-03-21T10:57:06.055Z,17.8
2023-03-21T10:58:06.400Z,17.8
2023-03-21T10:59:05.883Z,17.9
2023-03-21T11:00:06.165Z,17.9
2023-03-21T11:01:06.308Z,18
2023-03-21T11:02:06.414Z,18
2023-03-21T11:03:05.780Z,18
2023-03-21T11:04:06.119Z,18
2023-03-21T11:05:06.264Z,17.9
2023-03-21T11:06:06.596Z,15
2023-03-21T11:07:05.658Z,18
2023-03-21T11:08:05.982Z,18.1
2023-03-21T11:09:06.071Z,18.1
2023-03-21T11:10:07.288Z,18.1
2023-03-21T11:11:06.660Z,18.1
2023-03-21T11:12:05.887Z,15
2023-03-21T11:13:05.978Z,18.1
2023-03-21T11:14:06.247Z,18.1
2023-03-21T11:15:06.456Z,18
2023-03-21T11:16:05.734Z,16
2023-03-21T11:17:06.130Z,18.2
2023-03-21T11:18:06.516Z,18.2
2023-03-21T11:19:05.719Z,18.2
2023-03-21T11:20:06.063Z,18.1
2023-03-21T11:21:06.278Z,18.1
2023-03-21T11:22:06.455Z,18
2023-03-21T11:23:05.941Z,18
2023-03-21T11:24:07.533Z,18
2023-03-21T11:25:06.419Z,18
2023-03-21T11:26:06.335Z,18.1
2023-03-21T11:27:05.817Z,18
2023-03-21T11:28:06.080Z,18.1
2023-03-21T11:29:06.267Z,18.2
2023-03-21T11:30:06.474Z,18.2
2023-03-21T11:31:05.696Z,18.3
2023-03-21T11:32:06.251Z,18.4
2023-03-21T11:33:06.621Z,14
2023-03-21T11:34:05.905Z,18.4
2023-03-21T11:35:06.129Z,18.5
2023-03-21T11:36:05.619Z,18.5
2023-03-21T11:37:05.707Z,18.5
2023-03-21T11:38:06.381Z,18.5
2023-03-21T11:39:06.235Z,18.6
2023-03-21T11:40:05.903Z,15
2023-03-21T11:41:06.587Z,18.6
2023-03-21T11:42:05.811Z,18.5
2023-03-21T11:43:06.147Z,18.5
2023-03-21T11:44:06.323Z,18.5
2023-03-21T11:45:05.758Z,18.6
2023-03-21T11:46:06.073Z,18.5
2023-03-21T11:47:05.744Z,18.5
2023-03-21T11:48:06.143Z,18.6
2023-03-21T11:49:06.222Z,18.6
2023-03-21T11:50:06.635Z,18.6
2023-03-21T11:51:05.651Z,18.6
2023-03-21T11:52:06.105Z,18.5
2023-03-21T11:53:06.139Z,18.4
2023-03-21T11:54:05.740Z,18.4
2023-03-21T11:55:05.898Z,18.3
2023-03-21T11:56:06.171Z,18.4
2023-03-21T11:57:06.530Z,15
2023-03-21T11:58:14.123Z,18.5
2023-03-21T11:59:06.115Z,18.5
2023-03-21T12:00:06.390Z,18.5
2023-03-21T12:01:05.955Z,18.6
2023-03-21T12:02:06.340Z,18.6
2023-03-21T12:03:06.502Z,18.7
2023-03-21T12:04:05.422Z,18.7
2023-03-21T12:05:05.796Z,18.7
2023-03-21T12:06:06.322Z,18.6
2023-03-21T12:07:06.577Z,18.5
2023-03-21T12:08:05.601Z,18.4
2023-03-21T12:09:06.011Z,18.4
2023-03-21T12:10:06.346Z,18.4
2023-03-21T12:11:06.794Z,18.4
2023-03-21T12:12:05.542Z,18.4
2023-03-21T12:13:06.051Z,18.4
2023-03-21T12:14:06.265Z,18.5
2023-03-21T12:15:06.383Z,18.5
2023-03-21T12:16:06.420Z,18.5
2023-03-21T12:17:05.815Z,18.5
2023-03-21T12:18:06.000Z,18.4
2023-03-21T12:19:06.289Z,18.4
2023-03-21T12:20:06.466Z,18.3
2023-03-21T12:21:05.740Z,18.3
2023-03-21T12:22:05.902Z,18.2
2023-03-21T12:23:06.231Z,18.2
2023-03-21T12:24:06.604Z,18.2
2023-03-21T12:25:06.502Z,16
2023-03-21T12:26:05.930Z,18.2
2023-03-21T12:27:05.710Z,18.2
2023-03-21T12:28:06.273Z,18.3
2023-03-21T12:29:06.529Z,18.3
2023-03-21T12:30:05.861Z,18.3
2023-03-21T12:31:05.955Z,18.3
2023-03-21T12:32:06.388Z,17
2023-03-21T12:33:06.495Z,18.3
2023-03-21T12:34:05.903Z,18.3
2023-03-21T12:35:06.089Z,18.3
2023-03-21T12:36:06.321Z,18.3
2023-03-21T12:37:05.768Z,18.3
2023-03-21T12:38:06.168Z,18.3
2023-03-21T12:39:06.457Z,18.3
2023-03-21T12:40:05.608Z,18.3
2023-03-21T12:41:05.963Z,18.1
2023-03-21T12:42:06.105Z,18.1
2023-03-21T12:43:06.353Z,18
2023-03-21T12:44:06.677Z,18
2023-03-21T12:45:08.904Z,18
2023-03-21T12:46:06.035Z,18
2023-03-21T12:47:06.563Z,18
2023-03-21T12:48:05.645Z,15
2023-03-21T12:49:05.954Z,18
2023-03-21T12:50:06.254Z,18
2023-03-21T12:51:05.626Z,18
2023-03-21T12:52:05.854Z,15
2023-03-21T12:53:06.009Z,18.1
2023-03-21T12:54:06.724Z,18.1
2023-03-21T12:55:05.880Z,18.2
2023-03-21T12:56:06.046Z,18.2
2023-03-21T12:57:06.270Z,18.2
2023-03-21T12:58:06.229Z,18.1
2023-03-21T12:59:05.630Z,18.1
2023-03-21T13:00:06.234Z,18.1
2023-03-21T13:01:05.686Z,18.2
2023-03-21T13:02:05.999Z,18.1
2023-03-21T13:03:06.408Z,18.1
2023-03-21T13:04:06.315Z,18.1
2023-03-21T13:05:05.600Z,17
2023-03-21T13:06:06.193Z,18.2
2023-03-21T13:07:06.237Z,17
2023-03-21T13:08:05.827Z,18.2
2023-03-21T13:09:05.683Z,18.2
2023-03-21T13:10:06.107Z,18.2
2023-03-21T13:11:06.462Z,18.2
2023-03-21T13:12:05.827Z,18.2
2023-03-21T13:13:06.037Z,18.2
2023-03-21T13:14:06.431Z,18.2
2023-03-21T13:15:06.167Z,18.2
2023-03-21T13:16:05.821Z,18.1
2023-03-21T13:17:05.613Z,18.1
2023-03-21T13:18:06.277Z,18.1
2023-03-21T13:19:06.662Z,18
2023-03-21T13:20:05.726Z,18
2023-03-21T13:21:05.733Z,18
2023-03-21T13:22:06.248Z,18
2023-03-21T13:23:06.263Z,17.9
2023-03-21T13:24:05.717Z,17.9
2023-03-21T13:25:06.280Z,17.9
2023-03-21T13:26:05.843Z,17.8
2023-03-21T13:27:06.504Z,17.8
2023-03-21T13:28:05.821Z,17.8
2023-03-21T13:29:06.196Z,17.8
2023-03-21T13:30:06.697Z,17.7
2023-03-21T13:31:05.856Z,17.7
2023-03-21T13:32:06.241Z,17.7
2023-03-21T13:33:06.443Z,17.7
2023-03-21T13:34:06.515Z,17.7
2023-03-21T13:35:05.544Z,17.7
2023-03-21T13:36:05.919Z,18
2023-03-21T13:37:06.215Z,17.8
2023-03-21T13:38:06.620Z,17.7
2023-03-21T13:39:05.710Z,17.8
2023-03-21T13:40:06.069Z,17.8
2023-03-21T13:41:06.039Z,17.7
2023-03-21T13:42:06.171Z,17.7
2023-03-21T13:43:07.393Z,17.8
2023-03-21T13:44:05.857Z,17.8
2023-03-21T13:45:06.042Z,17.8